Time;durP1;ratioP1;P1;durP2;ratioP2;P2;SDS_P1;SDS_P2;PMS_P1;PMS_P2;Temp;Humidity;BMP_temperature;BMP_pressure;BME280_temperature;BME280_humidity;BME280_pressure;Samples;Min_cycle;Max_cycle;Signal;HPM_P1;HPM_P2
2022/07/24 00:01:46;;;;;;;6.43;5.68;;;;;;;;;;5004435;28;20041;-79
2022/07/24 00:04:16;;;;;;;6.88;6.18;;;;;;;;;;4996117;28;20118;-79
2022/07/24 00:06:42;;;;;;;6.72;6.00;;;;;;;;;;5014007;28;20050;-80
2022/07/24 00:09:08;;;;;;;8.32;6.07;;;;;;;;;;5014349;28;20462;-81
2022/07/24 00:11:35;;;;;;;6.72;5.82;;;;;;;;;;5013965;28;20046;-81
2022/07/24 00:14:01;;;;;;;8.18;5.82;;;;;;;;;;4995224;28;20486;-81
2022/07/24 00:16:27;;;;;;;6.15;5.53;;;;;;;;;;5013729;28;20429;-80
2022/07/24 00:18:53;;;;;;;7.85;6.03;;;;;;;;;;5014022;28;20045;-80
2022/07/24 00:21:19;;;;;;;7.13;5.97;;;;;;;;;;5014153;28;20045;-80
2022/07/24 00:23:45;;;;;;;6.45;5.45;;;;;;;;;;5013282;28;20482;-81
2022/07/24 00:26:12;;;;;;;7.50;5.85;;;;;;;;;;5013753;28;20045;-79
2022/07/24 00:28:38;;;;;;;8.13;5.65;;;;;;;;;;5013422;28;20046;-81
2022/07/24 00:31:05;;;;;;;7.60;6.15;;;;;;;;;;5013428;28;20049;-79
2022/07/24 00:33:31;;;;;;;6.88;6.05;;;;;;;;;;4996194;28;20513;-80
2022/07/24 00:35:57;;;;;;;6.43;5.70;;;;;;;;;;5013658;28;20476;-78
2022/07/24 00:38:26;;;;;;;8.10;5.55;;;;;;;;;;4995535;28;20515;-80
2022/07/24 00:40:52;;;;;;;8.20;5.82;;;;;;;;;;5013936;28;20057;-80
2022/07/24 00:43:18;;;;;;;7.45;5.97;;;;;;;;;;5013370;28;20042;-79
2022/07/24 00:45:44;;;;;;;7.75;5.53;;;;;;;;;;5014534;23;20050;-74
2022/07/24 00:48:10;;;;;;;9.23;5.80;;;;;;;;;;5007922;28;20125;-74
2022/07/24 00:50:37;;;;;;;7.20;5.95;;;;;;;;;;5007482;28;20042;-73
2022/07/24 00:53:03;;;;;;;7.82;6.18;;;;;;;;;;5008421;28;20046;-74
2022/07/24 00:55:29;;;;;;;7.15;6.20;;;;;;;;;;5006811;28;20050;-74
2022/07/24 00:57:56;;;;;;;6.88;5.90;;;;;;;;;;5008451;28;20042;-74
2022/07/24 01:00:22;;;;;;;7.15;6.20;;;;;;;;;;5025647;28;20042;-74
2022/07/24 01:02:50;;;;;;;7.65;5.95;;;;;;;;;;5012915;28;20050;-74
2022/07/24 01:05:16;;;;;;;7.20;6.50;;;;;;;;;;5011345;28;20086;-74
2022/07/24 01:07:42;;;;;;;8.75;6.32;;;;;;;;;;5012450;28;20092;-73
2022/07/24 01:10:08;;;;;;;7.82;7.05;;;;;;;;;;5010952;28;20038;-75
2022/07/24 01:12:36;;;;;;;7.47;6.75;;;;;;;;;;5011747;28;20053;-73
2022/07/24 01:15:02;;;;;;;7.28;6.45;;;;;;;;;;5009724;28;20097;-74
2022/07/24 01:17:31;;;;;;;9.10;6.63;;;;;;;;;;5008807;28;20047;-74
2022/07/24 01:19:58;;;;;;;8.75;6.63;;;;;;;;;;5011441;28;20039;-74
2022/07/24 01:22:25;;;;;;;8.25;6.72;;;;;;;;;;5010916;28;20042;-73
2022/07/24 01:24:51;;;;;;;7.85;6.40;;;;;;;;;;5010111;28;20061;-74
2022/07/24 01:27:21;;;;;;;8.52;7.00;;;;;;;;;;5011764;28;20486;-74
2022/07/24 01:29:47;;;;;;;10.25;7.30;;;;;;;;;;5009833;28;20497;-73
2022/07/24 01:32:13;;;;;;;8.63;7.05;;;;;;;;;;5011718;28;20046;-73
2022/07/24 01:34:39;;;;;;;7.88;6.32;;;;;;;;;;5011636;28;20038;-74
2022/07/24 01:37:05;;;;;;;7.63;6.82;;;;;;;;;;5009800;28;20046;-73
2022/07/24 01:39:31;;;;;;;8.15;6.93;;;;;;;;;;5009959;28;20475;-74
2022/07/24 01:41:57;;;;;;;8.85;7.10;;;;;;;;;;5010727;28;20562;-73
2022/07/24 01:44:23;;;;;;;8.52;7.20;;;;;;;;;;5007620;28;20038;-73
2022/07/24 01:46:49;;;;;;;7.53;6.80;;;;;;;;;;5027621;28;20058;-73
2022/07/24 01:49:15;;;;;;;8.88;7.00;;;;;;;;;;5030169;28;20101;-74
2022/07/24 01:51:41;;;;;;;9.95;7.25;;;;;;;;;;5031004;28;20038;-73
2022/07/24 01:54:07;;;;;;;10.48;7.18;;;;;;;;;;5029290;28;20524;-74
2022/07/24 01:56:34;;;;;;;8.63;6.88;;;;;;;;;;5020606;28;20050;-73
2022/07/24 01:59:00;;;;;;;8.20;6.72;;;;;;;;;;5010689;28;20042;-74
2022/07/24 02:01:29;;;;;;;10.85;7.53;;;;;;;;;;4993330;28;20065;-73
2022/07/24 02:03:56;;;;;;;8.60;7.25;;;;;;;;;;5011238;28;20121;-73
2022/07/24 02:06:22;;;;;;;8.98;7.47;;;;;;;;;;5028086;28;20065;-74
2022/07/24 02:08:48;;;;;;;8.77;7.97;;;;;;;;;;5030387;28;20042;-73
2022/07/24 02:11:14;;;;;;;10.55;7.47;;;;;;;;;;5030095;28;20060;-73
2022/07/24 02:13:40;;;;;;;8.95;7.95;;;;;;;;;;5030228;28;20037;-73
2022/07/24 02:16:06;;;;;;;9.65;7.68;;;;;;;;;;5012214;28;20135;-74
2022/07/24 02:18:32;;;;;;;8.63;7.72;;;;;;;;;;5029560;28;20038;-74
2022/07/24 02:20:58;;;;;;;10.80;8.43;;;;;;;;;;5030138;28;20057;-73
2022/07/24 02:23:24;;;;;;;10.05;8.23;;;;;;;;;;5029655;28;20045;-74
2022/07/24 02:25:50;;;;;;;9.27;8.02;;;;;;;;;;5012581;28;20057;-74
2022/07/24 02:28:16;;;;;;;10.32;7.88;;;;;;;;;;5029758;28;21675;-73
2022/07/24 02:30:43;;;;;;;8.90;8.00;;;;;;;;;;5031037;28;20096;-74
2022/07/24 02:33:09;;;;;;;8.68;7.80;;;;;;;;;;5030673;28;20042;-74
2022/07/24 02:35:36;;;;;;;12.98;8.10;;;;;;;;;;5012670;28;20041;-74
2022/07/24 02:38:02;;;;;;;9.98;8.38;;;;;;;;;;5029956;28;20042;-74
2022/07/24 02:40:28;;;;;;;9.80;8.48;;;;;;;;;;5028799;28;20044;-74
2022/07/24 02:42:54;;;;;;;11.07;8.30;;;;;;;;;;5011873;28;20042;-74
2022/07/24 02:45:20;;;;;;;9.07;8.18;;;;;;;;;;5009925;28;20054;-73
2022/07/24 02:47:51;;;;;;;9.68;8.13;;;;;;;;;;4999720;28;20067;-74
2022/07/24 02:50:17;;;;;;;9.63;8.07;;;;;;;;;;4975979;28;20134;-73
2022/07/24 02:52:44;;;;;;;9.02;7.97;;;;;;;;;;4991269;28;20102;-73
2022/07/24 02:55:10;;;;;;;8.95;8.00;;;;;;;;;;4989923;28;20042;-74
2022/07/24 02:57:36;;;;;;;10.32;8.32;;;;;;;;;;4990086;28;20137;-75
2022/07/24 03:00:04;;;;;;;13.05;8.63;;;;;;;;;;4990456;28;20061;-73
2022/07/24 03:02:30;;;;;;;9.35;8.10;;;;;;;;;;4990339;28;20051;-74
2022/07/24 03:04:56;;;;;;;10.70;8.43;;;;;;;;;;4988900;28;20049;-73
2022/07/24 03:07:22;;;;;;;8.98;7.90;;;;;;;;;;4990349;28;20061;-74
2022/07/24 03:09:48;;;;;;;10.57;8.23;;;;;;;;;;4988244;28;20050;-73
2022/07/24 03:12:14;;;;;;;9.68;8.68;;;;;;;;;;4972474;28;20517;-74
2022/07/24 03:14:40;;;;;;;9.40;8.25;;;;;;;;;;4989175;28;20486;-74
2022/07/24 03:17:06;;;;;;;10.65;8.75;;;;;;;;;;4989291;28;20043;-73
2022/07/24 03:19:32;;;;;;;11.40;8.95;;;;;;;;;;4988222;28;20042;-73
2022/07/24 03:21:58;;;;;;;10.20;8.82;;;;;;;;;;4989419;28;20047;-74
2022/07/24 03:24:24;;;;;;;9.23;8.32;;;;;;;;;;4988961;28;20049;-73
2022/07/24 03:26:50;;;;;;;9.93;8.57;;;;;;;;;;4989625;28;20070;-74
2022/07/24 03:29:17;;;;;;;10.82;8.50;;;;;;;;;;4989663;28;20050;-73
2022/07/24 03:31:43;;;;;;;9.82;8.48;;;;;;;;;;4989898;28;20046;-73
2022/07/24 03:34:09;;;;;;;10.45;9.38;;;;;;;;;;4989963;28;20050;-73
2022/07/24 03:36:35;;;;;;;9.73;8.73;;;;;;;;;;4991468;28;20050;-73
2022/07/24 03:39:02;;;;;;;9.95;8.88;;;;;;;;;;4975140;28;20124;-74
2022/07/24 03:41:28;;;;;;;10.77;8.85;;;;;;;;;;4972063;28;20051;-74
2022/07/24 03:43:54;;;;;;;10.82;8.52;;;;;;;;;;4991225;28;20136;-74
2022/07/24 03:46:20;;;;;;;10.43;9.25;;;;;;;;;;5017001;28;20053;-74
2022/07/24 03:48:46;;;;;;;10.77;8.98;;;;;;;;;;5010498;28;20056;-73
2022/07/24 03:51:12;;;;;;;12.07;8.98;;;;;;;;;;5028804;28;20042;-74
2022/07/24 03:53:38;;;;;;;10.77;8.82;;;;;;;;;;5028445;28;20096;-74
2022/07/24 03:56:08;;;;;;;11.60;9.23;;;;;;;;;;5014035;28;20046;-73
2022/07/24 03:58:34;;;;;;;11.23;9.25;;;;;;;;;;5031890;28;20049;-73
2022/07/24 04:01:00;;;;;;;10.57;9.10;;;;;;;;;;5032134;28;20070;-74
2022/07/24 04:03:26;;;;;;;10.90;8.85;;;;;;;;;;5015324;28;20159;-73
2022/07/24 04:05:52;;;;;;;10.38;9.00;;;;;;;;;;5017036;28;20045;-74
2022/07/24 04:08:19;;;;;;;10.20;9.20;;;;;;;;;;5015226;28;20125;-74
2022/07/24 04:10:45;;;;;;;10.45;9.38;;;;;;;;;;5014081;28;20026;-74
2022/07/24 04:13:11;;;;;;;11.20;9.40;;;;;;;;;;5013603;28;20030;-72
2022/07/24 04:15:37;;;;;;;10.68;9.10;;;;;;;;;;4996420;28;20060;-72
2022/07/24 04:18:03;;;;;;;10.77;9.68;;;;;;;;;;4996533;28;20041;-72
2022/07/24 04:20:29;;;;;;;10.70;9.35;;;;;;;;;;5027090;28;20069;-72
2022/07/24 04:22:55;;;;;;;11.55;10.13;;;;;;;;;;5027813;28;20137;-72
2022/07/24 04:25:21;;;;;;;12.40;10.18;;;;;;;;;;5028117;28;20093;-72
2022/07/24 04:27:47;;;;;;;11.77;10.00;;;;;;;;;;5012311;28;20049;-74
2022/07/24 04:30:14;;;;;;;11.18;9.80;;;;;;;;;;5030232;28;20037;-73
2022/07/24 04:32:40;;;;;;;13.10;10.18;;;;;;;;;;5030372;28;20488;-73
2022/07/24 04:35:06;;;;;;;10.95;9.57;;;;;;;;;;5029258;28;20045;-73
2022/07/24 04:37:32;;;;;;;13.15;9.75;;;;;;;;;;5027715;28;20069;-73
2022/07/24 04:39:58;;;;;;;10.95;9.73;;;;;;;;;;5030211;28;20042;-73
2022/07/24 04:42:25;;;;;;;11.73;10.27;;;;;;;;;;5030014;28;20116;-72
2022/07/24 04:44:51;;;;;;;11.30;9.82;;;;;;;;;;5030504;28;20042;-72
2022/07/24 04:47:17;;;;;;;12.02;9.90;;;;;;;;;;5030466;28;20508;-73
2022/07/24 04:49:43;;;;;;;11.38;9.82;;;;;;;;;;5029258;28;20038;-73
2022/07/24 04:52:09;;;;;;;12.15;9.60;;;;;;;;;;5028189;28;20053;-73
2022/07/24 04:54:35;;;;;;;13.85;10.43;;;;;;;;;;5012309;28;20473;-73
2022/07/24 04:57:01;;;;;;;12.73;10.27;;;;;;;;;;5030318;28;20072;-73
2022/07/24 04:59:27;;;;;;;11.40;9.93;;;;;;;;;;5029775;28;20057;-73
2022/07/24 05:01:53;;;;;;;11.57;10.30;;;;;;;;;;5030038;28;20081;-72
2022/07/24 05:04:19;;;;;;;12.25;10.30;;;;;;;;;;5027937;28;20042;-73
2022/07/24 05:06:46;;;;;;;11.30;10.02;;;;;;;;;;5027856;28;20044;-74
2022/07/24 05:09:12;;;;;;;11.60;9.95;;;;;;;;;;5030278;28;20046;-75
2022/07/24 05:11:38;;;;;;;12.15;9.88;;;;;;;;;;5011023;28;20050;-74
2022/07/24 05:14:04;;;;;;;13.35;10.13;;;;;;;;;;4992652;28;20055;-74
2022/07/24 05:16:31;;;;;;;12.68;10.15;;;;;;;;;;5030714;28;20145;-74
2022/07/24 05:18:57;;;;;;;11.63;9.85;;;;;;;;;;5011514;28;20054;-74
2022/07/24 05:21:23;;;;;;;10.98;9.60;;;;;;;;;;5028107;28;20085;-74
2022/07/24 05:23:49;;;;;;;11.43;10.25;;;;;;;;;;5030444;28;20096;-74
2022/07/24 05:26:15;;;;;;;11.95;9.82;;;;;;;;;;5030118;28;20074;-74
2022/07/24 05:28:41;;;;;;;13.52;10.18;;;;;;;;;;5013100;28;20040;-74
2022/07/24 05:31:08;;;;;;;13.88;10.30;;;;;;;;;;5029628;28;20110;-74
2022/07/24 05:33:34;;;;;;;12.10;9.75;;;;;;;;;;5030945;28;20061;-74
2022/07/24 05:36:00;;;;;;;11.85;10.02;;;;;;;;;;5012592;28;20045;-74
2022/07/24 05:38:26;;;;;;;11.77;9.82;;;;;;;;;;5030506;28;20176;-74
2022/07/24 05:40:52;;;;;;;11.50;10.30;;;;;;;;;;5030353;28;20042;-74
2022/07/24 05:43:18;;;;;;;11.25;9.77;;;;;;;;;;5030543;28;20042;-74
2022/07/24 05:45:44;;;;;;;11.20;9.90;;;;;;;;;;5031133;28;20049;-74
2022/07/24 05:48:10;;;;;;;11.10;9.95;;;;;;;;;;5033492;28;20049;-74
2022/07/24 05:50:36;;;;;;;12.50;11.00;;;;;;;;;;5033286;28;20066;-75
2022/07/24 05:53:02;;;;;;;11.65;9.73;;;;;;;;;;5034725;28;20046;-74
2022/07/24 05:55:28;;;;;;;11.90;10.60;;;;;;;;;;4999434;28;20032;-74
2022/07/24 05:57:55;;;;;;;11.98;10.75;;;;;;;;;;5034008;28;20042;-74
2022/07/24 06:00:21;;;;;;;12.40;10.82;;;;;;;;;;5033909;28;20045;-74
2022/07/24 06:02:48;;;;;;;11.80;10.18;;;;;;;;;;5030474;28;20056;-74
2022/07/24 06:05:15;;;;;;;11.73;10.52;;;;;;;;;;5031875;28;20038;-73
2022/07/24 06:07:41;;;;;;;12.48;10.38;;;;;;;;;;5040695;28;20085;-73
2022/07/24 06:10:08;;;;;;;11.95;9.98;;;;;;;;;;5039200;28;20042;-80
2022/07/24 06:12:34;;;;;;;11.75;10.52;;;;;;;;;;5034167;28;20026;-76
2022/07/24 06:15:00;;;;;;;12.95;10.48;;;;;;;;;;5021060;28;20053;-75
2022/07/24 06:17:26;;;;;;;13.52;11.13;;;;;;;;;;5018164;28;20032;-73
2022/07/24 06:19:52;;;;;;;13.27;11.82;;;;;;;;;;5036746;28;20022;-74
2022/07/24 06:22:18;;;;;;;14.57;11.98;;;;;;;;;;5037689;28;20045;-73
2022/07/24 06:24:44;;;;;;;14.95;12.45;;;;;;;;;;5040003;28;20034;-73
2022/07/24 06:27:10;;;;;;;13.85;12.10;;;;;;;;;;5039197;28;20038;-76
2022/07/24 06:29:36;;;;;;;14.20;12.43;;;;;;;;;;5038891;28;20038;-74
2022/07/24 06:32:02;;;;;;;15.90;13.65;;;;;;;;;;5035254;28;20061;-73
2022/07/24 06:34:28;;;;;;;15.32;13.70;;;;;;;;;;5037361;28;20041;-74
2022/07/24 06:36:54;;;;;;;16.75;13.50;;;;;;;;;;5037700;28;20076;-73
2022/07/24 06:39:20;;;;;;;17.17;14.10;;;;;;;;;;5036805;28;20034;-75
2022/07/24 06:41:46;;;;;;;16.52;14.20;;;;;;;;;;4994470;28;20030;-74
2022/07/24 06:44:12;;;;;;;15.38;12.95;;;;;;;;;;5029652;28;20061;-74
2022/07/24 06:46:39;;;;;;;15.65;13.38;;;;;;;;;;5033218;28;20083;-77
2022/07/24 06:49:05;;;;;;;15.00;12.85;;;;;;;;;;5020842;28;20034;-74
2022/07/24 06:51:31;;;;;;;25.25;12.30;;;;;;;;;;5022092;28;20173;-73
2022/07/24 06:53:57;;;;;;;14.93;13.32;;;;;;;;;;5006003;28;20057;-74
2022/07/24 06:56:23;;;;;;;14.63;12.32;;;;;;;;;;5021826;28;20048;-75
2022/07/24 06:58:49;;;;;;;16.13;11.93;;;;;;;;;;5037338;28;20042;-76
2022/07/24 07:01:15;;;;;;;15.00;12.27;;;;;;;;;;5007258;28;20046;-74
2022/07/24 07:03:42;;;;;;;15.88;12.13;;;;;;;;;;5030757;28;20096;-73
2022/07/24 07:06:08;;;;;;;14.13;11.30;;;;;;;;;;5036931;28;20057;-72
2022/07/24 07:08:35;;;;;;;14.32;11.18;;;;;;;;;;5022594;28;20093;-74
2022/07/24 07:11:01;;;;;;;12.95;11.63;;;;;;;;;;5019888;28;20026;-75
2022/07/24 07:13:27;;;;;;;15.25;12.45;;;;;;;;;;5036429;28;20086;-73
2022/07/24 07:15:53;;;;;;;14.13;11.95;;;;;;;;;;5012138;28;20042;-73
2022/07/24 07:18:19;;;;;;;14.38;12.93;;;;;;;;;;5015428;28;20046;-73
2022/07/24 07:20:45;;;;;;;14.18;12.73;;;;;;;;;;5034175;28;20029;-74
2022/07/24 07:23:11;;;;;;;15.85;13.05;;;;;;;;;;5002376;28;20049;-73
2022/07/24 07:25:38;;;;;;;14.55;12.57;;;;;;;;;;4989204;28;20120;-83
2022/07/24 07:28:04;;;;;;;13.52;11.95;;;;;;;;;;5030132;28;20042;-72
2022/07/24 07:30:30;;;;;;;14.48;12.30;;;;;;;;;;5034391;28;20045;-75
2022/07/24 07:32:56;;;;;;;15.35;13.32;;;;;;;;;;5034301;28;20029;-75
2022/07/24 07:35:22;;;;;;;13.70;12.30;;;;;;;;;;5012958;28;20018;-73
2022/07/24 07:37:49;;;;;;;17.90;13.73;;;;;;;;;;5014952;28;20049;-74
2022/07/24 07:40:15;;;;;;;14.93;13.15;;;;;;;;;;5018789;28;20057;-74
2022/07/24 07:42:41;;;;;;;15.80;14.10;;;;;;;;;;5019020;28;20050;-74
2022/07/24 07:45:07;;;;;;;16.98;13.68;;;;;;;;;;5017047;28;20105;-80
2022/07/24 07:47:36;;;;;;;17.70;13.80;;;;;;;;;;5005242;28;20037;-76
2022/07/24 07:50:02;;;;;;;15.35;13.18;;;;;;;;;;5020223;28;20057;-75
2022/07/24 07:52:28;;;;;;;15.95;14.23;;;;;;;;;;5003275;28;20057;-72
2022/07/24 07:54:54;;;;;;;18.58;15.20;;;;;;;;;;5034540;28;20038;-72
2022/07/24 07:57:20;;;;;;;18.95;16.55;;;;;;;;;;5037310;28;20036;-71
2022/07/24 07:59:47;;;;;;;17.70;15.55;;;;;;;;;;5036271;28;20050;-72
2022/07/24 08:02:13;;;;;;;19.10;16.00;;;;;;;;;;5019470;28;20038;-74
2022/07/24 08:04:39;;;;;;;18.85;15.45;;;;;;;;;;5034466;28;20053;-75
2022/07/24 08:07:05;;;;;;;19.83;15.75;;;;;;;;;;5030539;28;20072;-75
2022/07/24 08:09:31;;;;;;;17.35;15.20;;;;;;;;;;5018006;28;20074;-75
2022/07/24 08:11:57;;;;;;;19.67;16.67;;;;;;;;;;5034793;28;20052;-72
2022/07/24 08:14:24;;;;;;;19.70;15.85;;;;;;;;;;5018624;28;20074;-72
2022/07/24 08:16:50;;;;;;;19.15;15.50;;;;;;;;;;5035801;28;20050;-73
2022/07/24 08:19:16;;;;;;;21.75;16.80;;;;;;;;;;5029666;28;20069;-73
2022/07/24 08:21:42;;;;;;;18.25;14.88;;;;;;;;;;5030536;28;20042;-74
2022/07/24 08:24:08;;;;;;;19.00;15.40;;;;;;;;;;5033043;28;20042;-72
2022/07/24 08:26:34;;;;;;;17.52;15.05;;;;;;;;;;5036378;28;20052;-73
2022/07/24 08:29:00;;;;;;;20.67;14.60;;;;;;;;;;4999329;28;20046;-72
2022/07/24 08:31:26;;;;;;;14.98;12.98;;;;;;;;;;5002093;28;20030;-72
2022/07/24 08:33:52;;;;;;;13.02;11.65;;;;;;;;;;5020344;28;20405;-75
2022/07/24 08:36:18;;;;;;;10.13;7.95;;;;;;;;;;5031919;28;20050;-72
2022/07/24 08:38:44;;;;;;;9.85;6.85;;;;;;;;;;4998470;28;20104;-72
2022/07/24 08:41:10;;;;;;;8.00;6.00;;;;;;;;;;5002309;28;20045;-72
2022/07/24 08:43:37;;;;;;;8.25;5.57;;;;;;;;;;5012508;28;20030;-72
2022/07/24 08:46:03;;;;;;;7.63;5.18;;;;;;;;;;4990756;28;20077;-73
2022/07/24 08:48:29;;;;;;;7.68;5.13;;;;;;;;;;5025069;28;20057;-74
2022/07/24 08:50:56;;;;;;;6.05;4.85;;;;;;;;;;5028017;28;20046;-72
2022/07/24 08:53:24;;;;;;;13.13;5.18;;;;;;;;;;5030067;28;20068;-73
2022/07/24 08:55:50;;;;;;;7.32;4.90;;;;;;;;;;5030434;28;20049;-73
2022/07/24 08:58:17;;;;;;;5.82;4.30;;;;;;;;;;5029965;28;20045;-73
2022/07/24 09:00:43;;;;;;;5.53;4.60;;;;;;;;;;5027286;28;20048;-72
2022/07/24 09:03:10;;;;;;;6.90;4.72;;;;;;;;;;5036243;28;20102;-72
2022/07/24 09:05:52;;;;;;;8.32;4.93;;;;;;;;;;5021153;28;20046;-72
2022/07/24 09:08:18;;;;;;;6.07;4.93;;;;;;;;;;5023668;28;20049;-72
2022/07/24 09:11:03;;;;;;;7.80;4.70;;;;;;;;;;4989914;28;20132;-72
2022/07/24 09:14:29;;;;;;;5.60;4.45;;;;;;;;;;5003765;28;20080;-73
2022/07/24 09:16:22;;;;;;;7.35;4.10;;;;;;;;;;5020245;28;20060;-72
2022/07/24 09:18:48;;;;;;;4.68;3.88;;;;;;;;;;5023865;28;20102;-73
2022/07/24 09:21:15;;;;;;;5.97;4.45;;;;;;;;;;5032219;28;20101;-72
2022/07/24 09:23:42;;;;;;;4.95;4.38;;;;;;;;;;5029557;28;20065;-73
2022/07/24 09:26:08;;;;;;;6.28;4.20;;;;;;;;;;5026672;28;20064;-72
2022/07/24 09:28:51;;;;;;;5.95;4.20;;;;;;;;;;5027003;28;20105;-72
2022/07/24 09:31:17;;;;;;;6.28;3.83;;;;;;;;;;5025669;28;20046;-72
2022/07/24 09:33:43;;;;;;;7.70;4.18;;;;;;;;;;5023959;28;20046;-72
2022/07/24 09:36:17;;;;;;;5.68;4.28;;;;;;;;;;5020220;28;20505;-72
2022/07/24 09:38:50;;;;;;;6.43;4.15;;;;;;;;;;5018845;28;20077;-78
2022/07/24 09:41:22;;;;;;;5.80;4.15;;;;;;;;;;5026323;28;20073;-73
2022/07/24 09:43:58;;;;;;;6.00;4.00;;;;;;;;;;5010710;28;20085;-74
2022/07/24 09:46:26;;;;;;;4.90;4.15;;;;;;;;;;4993915;28;20054;-76
2022/07/24 09:48:59;;;;;;;5.57;4.07;;;;;;;;;;5014870;28;20034;-72
2022/07/24 09:51:26;;;;;;;5.32;3.72;;;;;;;;;;5033570;28;20068;-73
2022/07/24 09:53:54;;;;;;;5.72;4.00;;;;;;;;;;5019883;28;20040;-78
2022/07/24 09:56:20;;;;;;;6.05;3.53;;;;;;;;;;5026624;28;20046;-73
2022/07/24 09:58:46;;;;;;;6.10;4.05;;;;;;;;;;5028751;28;20069;-73
2022/07/24 10:01:13;;;;;;;6.55;4.32;;;;;;;;;;5027250;28;20033;-72
2022/07/24 10:03:41;;;;;;;5.05;4.00;;;;;;;;;;5032350;28;20070;-73
2022/07/24 10:06:08;;;;;;;5.07;4.10;;;;;;;;;;5032934;28;20101;-72
2022/07/24 10:08:35;;;;;;;5.85;3.92;;;;;;;;;;5028066;28;20045;-75
2022/07/24 10:11:01;;;;;;;6.18;4.10;;;;;;;;;;5003523;28;20046;-72
2022/07/24 10:13:28;;;;;;;4.75;4.03;;;;;;;;;;5008983;28;20042;-74
2022/07/24 10:16:04;;;;;;;4.38;3.92;;;;;;;;;;5016838;28;20046;-73
2022/07/24 10:18:45;;;;;;;4.72;3.60;;;;;;;;;;5033838;28;20068;-73
2022/07/24 10:21:15;;;;;;;6.55;3.60;;;;;;;;;;5029991;28;20042;-74
2022/07/24 10:23:55;;;;;;;5.75;3.72;;;;;;;;;;5031209;28;20076;-74
2022/07/24 10:26:33;;;;;;;4.70;3.90;;;;;;;;;;5012910;28;20077;-79
2022/07/24 10:29:07;;;;;;;5.88;3.72;;;;;;;;;;5026658;28;20082;-73
2022/07/24 10:31:34;;;;;;;4.43;3.50;;;;;;;;;;5011570;28;20486;-75
2022/07/24 10:34:02;;;;;;;5.18;3.72;;;;;;;;;;5015564;28;20106;-73
2022/07/24 10:36:31;;;;;;;4.40;3.40;;;;;;;;;;5025051;28;20037;-73
2022/07/24 10:39:00;;;;;;;3.95;3.35;;;;;;;;;;5007310;28;20046;-72
2022/07/24 10:41:26;;;;;;;6.57;3.42;;;;;;;;;;5029451;28;20111;-72
2022/07/24 10:44:11;;;;;;;4.55;3.70;;;;;;;;;;5030214;28;20045;-72
2022/07/24 10:46:56;;;;;;;3.65;3.20;;;;;;;;;;5003327;28;20050;-80
2022/07/24 10:49:33;;;;;;;5.15;3.20;;;;;;;;;;5008529;28;20061;-72
2022/07/24 10:52:00;;;;;;;4.32;3.40;;;;;;;;;;5009924;28;20038;-72
2022/07/24 10:54:26;;;;;;;5.03;3.20;;;;;;;;;;5016656;28;20044;-78
2022/07/24 10:56:52;;;;;;;4.28;3.35;;;;;;;;;;5005561;28;20042;-74
2022/07/24 10:59:32;;;;;;;3.95;3.17;;;;;;;;;;5005796;28;20041;-74
2022/07/24 11:02:18;;;;;;;5.85;3.33;;;;;;;;;;4989070;28;20057;-74
2022/07/24 11:04:44;;;;;;;;;;;;;;;;;;4987582;28;20041;-75
2022/07/24 11:07:10;;;;;;;;;;;;;;;;;;5001812;28;19921;-76
2022/07/24 11:09:36;;;;;;;;;;;;;;;;;;5016147;28;19922;-75
2022/07/24 11:12:02;;;;;;;5.32;3.20;;;;;;;;;;4996803;28;19923;-75
2022/07/24 11:14:38;;;;;;;3.75;3.42;;;;;;;;;;4999819;28;20069;-75
2022/07/24 11:17:23;;;;;;;3.67;2.95;;;;;;;;;;5015823;28;20056;-76
2022/07/24 11:19:56;;;;;;;4.78;3.17;;;;;;;;;;5007389;28;20077;-76
2022/07/24 11:22:37;;;;;;;5.88;3.15;;;;;;;;;;4998406;28;20072;-76
2022/07/24 11:25:11;;;;;;;3.88;3.33;;;;;;;;;;5021184;28;20048;-74
2022/07/24 11:27:48;;;;;;;4.10;3.13;;;;;;;;;;5004200;28;20056;-75
2022/07/24 11:30:15;;;;;;;3.97;3.20;;;;;;;;;;5025607;28;20172;-75
2022/07/24 11:32:42;;;;;;;4.18;3.30;;;;;;;;;;5000829;28;20046;-76
2022/07/24 11:35:08;;;;;;;5.40;3.10;;;;;;;;;;5021545;28;20061;-76
2022/07/24 11:37:38;;;;;;;4.10;3.33;;;;;;;;;;5021069;28;20046;-75
2022/07/24 11:40:06;;;;;;;5.90;3.25;;;;;;;;;;5018263;28;20464;-76
2022/07/24 11:42:32;;;;;;;3.40;3.10;;;;;;;;;;5000617;28;20046;-75
2022/07/24 11:45:00;;;;;;;4.03;3.10;;;;;;;;;;5007072;28;20068;-77
2022/07/24 11:47:27;;;;;;;3.65;3.15;;;;;;;;;;5031516;28;20042;-74
2022/07/24 11:49:57;;;;;;;4.43;3.38;;;;;;;;;;5021556;28;20087;-75
2022/07/24 11:52:30;;;;;;;5.18;3.50;;;;;;;;;;5021441;28;20396;-75
2022/07/24 11:54:57;;;;;;;5.07;3.60;;;;;;;;;;4993187;28;20092;-75
2022/07/24 11:57:24;;;;;;;3.70;3.13;;;;;;;;;;5010679;28;20053;-76
2022/07/24 11:59:51;;;;;;;5.90;3.67;;;;;;;;;;5010300;28;20053;-74
2022/07/24 12:02:17;;;;;;;4.10;3.40;;;;;;;;;;5026167;28;20046;-75
2022/07/24 12:04:44;;;;;;;5.18;3.42;;;;;;;;;;5007945;28;20100;-74
2022/07/24 12:07:17;;;;;;;4.03;3.33;;;;;;;;;;4991323;28;20128;-75
2022/07/24 12:09:45;;;;;;;4.07;3.20;;;;;;;;;;5027481;28;20053;-75
2022/07/24 12:12:18;;;;;;;4.65;3.20;;;;;;;;;;4993146;28;20045;-74
2022/07/24 12:14:44;;;;;;;5.13;3.33;;;;;;;;;;4993410;28;20045;-75
2022/07/24 12:17:10;;;;;;;4.13;3.13;;;;;;;;;;5008591;28;20045;-74
2022/07/24 12:19:36;;;;;;;3.80;3.08;;;;;;;;;;4992483;28;20046;-75
2022/07/24 12:22:03;;;;;;;5.65;3.38;;;;;;;;;;4992422;28;20038;-75
2022/07/24 12:24:31;;;;;;;4.63;3.20;;;;;;;;;;4989059;28;20418;-75
2022/07/24 12:26:58;;;;;;;4.53;3.38;;;;;;;;;;4987725;28;20096;-74
2022/07/24 12:29:25;;;;;;;4.93;3.30;;;;;;;;;;5023606;28;20068;-74
2022/07/24 12:32:10;;;;;;;3.50;3.20;;;;;;;;;;5006323;28;20404;-75
2022/07/24 12:34:43;;;;;;;3.50;3.20;;;;;;;;;;5008687;28;20145;-76
2022/07/24 12:37:20;;;;;;;5.18;2.90;;;;;;;;;;4992892;28;20053;-75
2022/07/24 12:39:53;;;;;;;5.05;3.15;;;;;;;;;;5026864;28;20105;-75
2022/07/24 12:42:30;;;;;;;6.28;3.10;;;;;;;;;;4986465;28;20077;-74
2022/07/24 12:45:05;;;;;;;4.00;3.30;;;;;;;;;;5025416;28;20108;-75
2022/07/24 12:47:32;;;;;;;4.05;3.40;;;;;;;;;;5018585;28;20046;-75
2022/07/24 12:49:58;;;;;;;3.53;2.90;;;;;;;;;;5005562;28;20049;-75
2022/07/24 12:52:25;;;;;;;4.45;2.90;;;;;;;;;;5021933;28;20041;-75
2022/07/24 12:54:51;;;;;;;3.72;2.67;;;;;;;;;;4990074;28;20042;-75
2022/07/24 12:57:20;;;;;;;4.05;2.75;;;;;;;;;;4990168;28;20523;-75
2022/07/24 12:59:48;;;;;;;6.40;3.00;;;;;;;;;;5023699;28;20046;-74
2022/07/24 13:02:23;;;;;;;4.97;2.80;;;;;;;;;;5008227;28;20172;-75
2022/07/24 13:04:57;;;;;;;6.32;3.10;;;;;;;;;;5022302;28;20083;-75
2022/07/24 13:07:24;;;;;;;3.60;2.78;;;;;;;;;;5020343;28;21022;-75
2022/07/24 13:09:51;;;;;;;4.10;2.72;;;;;;;;;;5020526;28;20117;-75
2022/07/24 13:12:17;;;;;;;3.70;2.92;;;;;;;;;;5022248;28;20042;-75
2022/07/24 13:14:43;;;;;;;3.38;2.60;;;;;;;;;;5021142;28;20042;-75
2022/07/24 13:17:10;;;;;;;5.35;3.00;;;;;;;;;;5024329;28;20097;-74
2022/07/24 13:19:40;;;;;;;3.58;2.80;;;;;;;;;;5025363;28;20065;-75
2022/07/24 13:22:06;;;;;;;3.85;3.08;;;;;;;;;;5026878;28;20038;-74
2022/07/24 13:24:33;;;;;;;3.00;2.70;;;;;;;;;;5019965;28;20475;-75
2022/07/24 13:26:59;;;;;;;4.30;2.90;;;;;;;;;;5023943;28;20105;-75
2022/07/24 13:29:26;;;;;;;3.50;2.88;;;;;;;;;;5023257;28;20037;-75
2022/07/24 13:31:52;;;;;;;3.67;2.80;;;;;;;;;;5022277;28;20478;-75
2022/07/24 13:34:18;;;;;;;4.18;2.95;;;;;;;;;;5022916;28;20068;-75
2022/07/24 13:36:44;;;;;;;4.22;2.80;;;;;;;;;;5024475;28;20192;-74
2022/07/24 13:39:10;;;;;;;3.80;2.90;;;;;;;;;;4988869;28;20057;-75
2022/07/24 13:41:37;;;;;;;6.68;3.10;;;;;;;;;;5023927;28;20046;-75
2022/07/24 13:44:04;;;;;;;4.00;2.55;;;;;;;;;;5006203;28;20049;-75
2022/07/24 13:46:30;;;;;;;4.85;2.92;;;;;;;;;;5023081;28;20136;-75
2022/07/24 13:48:57;;;;;;;4.47;2.80;;;;;;;;;;5005837;28;20049;-75
2022/07/24 13:51:23;;;;;;;4.82;2.80;;;;;;;;;;5024486;28;20049;-75
2022/07/24 13:53:49;;;;;;;6.05;2.80;;;;;;;;;;5002293;28;20054;-75
2022/07/24 13:56:16;;;;;;;3.35;2.72;;;;;;;;;;4990008;28;20044;-75
2022/07/24 13:58:43;;;;;;;3.95;2.50;;;;;;;;;;5022425;28;20046;-75
2022/07/24 14:01:10;;;;;;;4.25;3.00;;;;;;;;;;5003748;28;20061;-75
2022/07/24 14:03:41;;;;;;;3.25;2.92;;;;;;;;;;5022540;28;20045;-76
2022/07/24 14:06:07;;;;;;;5.63;2.85;;;;;;;;;;5024265;28;20046;-75
2022/07/24 14:08:33;;;;;;;2.85;2.55;;;;;;;;;;4987959;28;20046;-75
2022/07/24 14:10:59;;;;;;;4.93;2.70;;;;;;;;;;5010694;28;20080;-74
2022/07/24 14:13:25;;;;;;;3.70;2.85;;;;;;;;;;5000513;28;20060;-76
2022/07/24 14:15:51;;;;;;;3.80;2.85;;;;;;;;;;4997093;28;20121;-76
2022/07/24 14:18:17;;;;;;;4.07;2.83;;;;;;;;;;4994615;28;20046;-75
2022/07/24 14:20:44;;;;;;;3.92;2.63;;;;;;;;;;5001308;28;20050;-76
2022/07/24 14:23:10;;;;;;;3.88;2.85;;;;;;;;;;5018873;28;20125;-75
2022/07/24 14:25:36;;;;;;;4.05;2.60;;;;;;;;;;5018767;28;20046;-75
2022/07/24 14:28:02;;;;;;;3.38;2.90;;;;;;;;;;4995850;28;20412;-75
2022/07/24 14:30:28;;;;;;;4.43;3.00;;;;;;;;;;4977103;28;20064;-83
2022/07/24 14:32:54;;;;;;;3.83;2.83;;;;;;;;;;4990802;28;20046;-76
2022/07/24 14:35:20;;;;;;;4.55;2.80;;;;;;;;;;5000605;28;20038;-76
2022/07/24 14:37:47;;;;;;;3.97;2.80;;;;;;;;;;4989143;28;20115;-76